PWSweather.com
Personal Weather Stations
Station Observations
IRIVIRED2
île Maurice, Petit RaffrayMU

île MauricePetit RaffrayMU

Lat: -20.02533, Lon: 57.61883

Elevation: 183

Station Type: Davis Vantage Pro2 plus

http://www.meteomauritius.altervista.org

Latest ConditionsUpdated 9:30:01 PM GMT+04:04 Saturday, Oct 21, 2017
Currently Today's Max Today's Min Today's Average
Temperature 75.9°F24.4°C 81.9°F27.7°C 74.7°F23.7°C 77.9°F25.5°C
Dew Point 67.4°F19.7°C 69.8°F21.0°C 66.8°F19.3°C 68.0°F20.0°C
Winds Calm Calm 12.7 mph E20.4 kmh E - 6.6 mph 10.6 kmh
Wind Gusts 9.2 mph14.8 kmh 23.0 mph37.0 kmh - -
Humidity 75% 80% 61% 72%
Pressure 30.19 in1022.4 mb 30.20 in1022.7 mb 30.11 in1019.6 mb -
Hour Temp Dew Point Humidity Winds Wind Gusts Pressure Precip Precip Rate Daily Precip Total
09:30 PM 75.9°F24.4°C 67.4°F19.7°C 75% Calm Calm 9.2 mph14.8 kmh 30.19 in1022.4 mb - 0.00 in0.0 mm 0.00 in0.0 mm
09:20 PM 76.0°F24.4°C 67.5°F19.7°C 75% 4.6 mph SE7.4 kmh SE 9.2 mph14.8 kmh 30.19 in1022.4 mb - 0.00 in0.0 mm 0.00 in0.0 mm
09:10 PM 76.1°F24.5°C 67.6°F19.8°C 75% 4.6 mph E7.4 kmh E 8.1 mph13.0 kmh 30.19 in1022.4 mb - 0.00 in0.0 mm 0.00 in0.0 mm
09:00 PM 76.1°F24.5°C 67.6°F19.8°C 75% 6.9 mph ESE11.1 kmh ESE 9.2 mph14.8 kmh 30.19 in1022.4 mb - 0.00 in0.0 mm 0.00 in0.0 mm
08:50 PM 76.1°F24.5°C 67.6°F19.8°C 75% 6.9 mph E11.1 kmh E 12.7 mph20.4 kmh 30.19 in1022.4 mb - 0.00 in0.0 mm 0.00 in0.0 mm
08:40 PM 76.2°F24.6°C 67.7°F19.8°C 75% 4.6 mph E7.4 kmh E 10.4 mph16.7 kmh 30.19 in1022.4 mb - 0.00 in0.0 mm 0.00 in0.0 mm
08:30 PM 76.3°F24.6°C 67.8°F19.9°C 75% 8.1 mph ESE13.0 kmh ESE 11.5 mph18.5 kmh 30.19 in1022.4 mb - 0.00 in0.0 mm 0.00 in0.0 mm
08:20 PM 76.2°F24.6°C 67.3°F19.6°C 74% 8.1 mph E13.0 kmh E 10.4 mph16.7 kmh 30.18 in1022.0 mb - 0.00 in0.0 mm 0.00 in0.0 mm
08:10 PM 76.3°F24.6°C 67.0°F19.4°C 73% 3.5 mph E5.6 kmh E 15.0 mph24.1 kmh 30.18 in1022.0 mb - 0.00 in0.0 mm 0.00 in0.0 mm
08:00 PM 76.3°F24.6°C 67.0°F19.4°C 73% 4.6 mph ESE7.4 kmh ESE 8.1 mph13.0 kmh 30.17 in1021.7 mb - 0.00 in0.0 mm 0.00 in0.0 mm
07:50 PM 76.4°F24.7°C 67.5°F19.7°C 74% 1.2 mph E1.9 kmh E 11.5 mph18.5 kmh 30.17 in1021.7 mb - 0.00 in0.0 mm 0.00 in0.0 mm
07:40 PM 76.5°F24.7°C 67.2°F19.6°C 73% 3.5 mph ESE5.6 kmh ESE 9.2 mph14.8 kmh 30.17 in1021.7 mb - 0.00 in0.0 mm 0.00 in0.0 mm
07:30 PM 76.5°F24.7°C 68.0°F20.0°C 75% 5.8 mph ESE9.3 kmh ESE 11.5 mph18.5 kmh 30.16 in1021.3 mb - 0.00 in0.0 mm 0.00 in0.0 mm
07:20 PM 76.4°F24.7°C 67.9°F19.9°C 75% 4.6 mph E7.4 kmh E 9.2 mph14.8 kmh 30.16 in1021.3 mb - 0.00 in0.0 mm 0.00 in0.0 mm
07:10 PM 76.5°F24.7°C 68.0°F20.0°C 75% 1.2 mph ESE1.9 kmh ESE 8.1 mph13.0 kmh 30.16 in1021.3 mb - 0.00 in0.0 mm 0.00 in0.0 mm
07:00 PM 76.5°F24.7°C 67.6°F19.8°C 74% 2.3 mph ESE3.7 kmh ESE 8.1 mph13.0 kmh 30.16 in1021.3 mb - 0.00 in0.0 mm 0.00 in0.0 mm
06:50 PM 76.5°F24.7°C 67.6°F19.8°C 74% 4.6 mph ESE7.4 kmh ESE 5.8 mph9.3 kmh 30.15 in1021.0 mb - 0.00 in0.0 mm 0.00 in0.0 mm
06:40 PM 76.6°F24.8°C 68.1°F20.1°C 75% 5.8 mph ESE9.3 kmh ESE 9.2 mph14.8 kmh 30.15 in1021.0 mb - 0.00 in0.0 mm 0.00 in0.0 mm
06:30 PM 76.8°F24.9°C 68.2°F20.1°C 75% 4.6 mph E7.4 kmh E 15.0 mph24.1 kmh 30.14 in1020.7 mb - 0.00 in0.0 mm 0.00 in0.0 mm
06:20 PM 76.8°F24.9°C 68.3°F20.2°C 75% 6.9 mph SE11.1 kmh SE 15.0 mph24.1 kmh 30.14 in1020.7 mb - 0.00 in0.0 mm 0.00 in0.0 mm
06:10 PM 77.0°F25.0°C 68.5°F20.3°C 75% 5.8 mph E9.3 kmh E 13.8 mph22.2 kmh 30.14 in1020.7 mb - 0.00 in0.0 mm 0.00 in0.0 mm
06:00 PM 77.2°F25.1°C 68.7°F20.4°C 75% 4.6 mph ESE7.4 kmh ESE 13.8 mph22.2 kmh 30.14 in1020.7 mb - 0.00 in0.0 mm 0.00 in0.0 mm
05:50 PM 77.5°F25.3°C 68.5°F20.3°C 74% 5.8 mph ESE9.3 kmh ESE 11.5 mph18.5 kmh 30.13 in1020.3 mb - 0.00 in0.0 mm 0.00 in0.0 mm
05:40 PM 77.6°F25.3°C 68.7°F20.4°C 74% 4.6 mph ESE7.4 kmh ESE 8.1 mph13.0 kmh 30.13 in1020.3 mb - 0.00 in0.0 mm 0.00 in0.0 mm
05:30 PM 77.8°F25.4°C 68.4°F20.2°C 73% 4.6 mph E7.4 kmh E 11.5 mph18.5 kmh 30.13 in1020.3 mb - 0.00 in0.0 mm 0.00 in0.0 mm
05:20 PM 77.9°F25.5°C 68.1°F20.1°C 72% 1.2 mph E1.9 kmh E 6.9 mph11.1 kmh 30.13 in1020.3 mb - 0.00 in0.0 mm 0.00 in0.0 mm
05:10 PM 78.2°F25.7°C 68.4°F20.2°C 72% 6.9 mph SE11.1 kmh SE 12.7 mph20.4 kmh 30.13 in1020.3 mb - 0.00 in0.0 mm 0.00 in0.0 mm
05:00 PM 78.4°F25.8°C 68.6°F20.3°C 72% 2.3 mph SE3.7 kmh SE 5.8 mph9.3 kmh 30.12 in1020.0 mb - 0.00 in0.0 mm 0.00 in0.0 mm
04:50 PM 78.6°F25.9°C 68.8°F20.4°C 72% 9.2 mph ESE14.8 kmh ESE 18.4 mph29.6 kmh 30.13 in1020.3 mb - 0.00 in0.0 mm 0.00 in0.0 mm
04:40 PM 79.0°F26.1°C 68.4°F20.2°C 70% 10.4 mph ESE16.7 kmh ESE 12.7 mph20.4 kmh 30.12 in1020.0 mb - 0.00 in0.0 mm 0.00 in0.0 mm
04:30 PM 79.7°F26.5°C 68.6°F20.3°C 69% 4.6 mph E7.4 kmh E 11.5 mph18.5 kmh 30.12 in1020.0 mb - 0.00 in0.0 mm 0.00 in0.0 mm
04:20 PM 80.0°F26.7°C 68.5°F20.3°C 68% 9.2 mph ESE14.8 kmh ESE 17.3 mph27.8 kmh 30.12 in1020.0 mb - 0.00 in0.0 mm 0.00 in0.0 mm
04:10 PM 79.7°F26.5°C 68.6°F20.3°C 69% 6.9 mph E11.1 kmh E 9.2 mph14.8 kmh 30.12 in1020.0 mb - 0.00 in0.0 mm 0.00 in0.0 mm
04:00 PM 79.6°F26.4°C 68.5°F20.3°C 69% 10.4 mph ESE16.7 kmh ESE 23.0 mph37.0 kmh 30.12 in1020.0 mb - 0.00 in0.0 mm 0.00 in0.0 mm
03:50 PM 79.7°F26.5°C 68.2°F20.1°C 68% 9.2 mph SE14.8 kmh SE 13.8 mph22.2 kmh 30.11 in1019.6 mb - 0.00 in0.0 mm 0.00 in0.0 mm
03:40 PM 80.1°F26.7°C 67.7°F19.8°C 66% 9.2 mph SE14.8 kmh SE 17.3 mph27.8 kmh 30.11 in1019.6 mb - 0.00 in0.0 mm 0.00 in0.0 mm
03:30 PM 80.3°F26.8°C 67.9°F19.9°C 66% 8.1 mph E13.0 kmh E 15.0 mph24.1 kmh 30.11 in1019.6 mb - 0.00 in0.0 mm 0.00 in0.0 mm
03:20 PM 80.4°F26.9°C 68.0°F20.0°C 66% 5.8 mph ESE9.3 kmh ESE 10.4 mph16.7 kmh 30.11 in1019.6 mb - 0.00 in0.0 mm 0.00 in0.0 mm
03:10 PM 80.0°F26.7°C 67.6°F19.8°C 66% 9.2 mph SE14.8 kmh SE 17.3 mph27.8 kmh 30.11 in1019.6 mb - 0.00 in0.0 mm 0.00 in0.0 mm
03:00 PM 80.6°F27.0°C 67.7°F19.8°C 65% 9.2 mph E14.8 kmh E 17.3 mph27.8 kmh 30.12 in1020.0 mb - 0.00 in0.0 mm 0.00 in0.0 mm
02:50 PM 80.6°F27.0°C 67.7°F19.8°C 65% 6.9 mph ESE11.1 kmh ESE 16.1 mph25.9 kmh 30.11 in1019.6 mb - 0.00 in0.0 mm 0.00 in0.0 mm
02:40 PM 80.9°F27.2°C 67.6°F19.8°C 64% 6.9 mph SE11.1 kmh SE 13.8 mph22.2 kmh 30.12 in1020.0 mb - 0.00 in0.0 mm 0.00 in0.0 mm
02:30 PM 81.3°F27.4°C 67.5°F19.7°C 63% 8.1 mph SE13.0 kmh SE 16.1 mph25.9 kmh 30.12 in1020.0 mb - 0.00 in0.0 mm 0.00 in0.0 mm
02:20 PM 81.1°F27.3°C 67.3°F19.6°C 63% 9.2 mph E14.8 kmh E 17.3 mph27.8 kmh 30.12 in1020.0 mb - 0.00 in0.0 mm 0.00 in0.0 mm
02:10 PM 81.3°F27.4°C 67.0°F19.4°C 62% 11.5 mph E18.5 kmh E 19.6 mph31.5 kmh 30.12 in1020.0 mb - 0.00 in0.0 mm 0.00 in0.0 mm
02:00 PM 81.5°F27.5°C 67.7°F19.8°C 63% 10.4 mph ESE16.7 kmh ESE 15.0 mph24.1 kmh 30.12 in1020.0 mb - 0.00 in0.0 mm 0.00 in0.0 mm
01:50 PM 81.7°F27.6°C 67.9°F19.9°C 63% 8.1 mph E13.0 kmh E 16.1 mph25.9 kmh 30.12 in1020.0 mb - 0.00 in0.0 mm 0.00 in0.0 mm
01:40 PM 81.3°F27.4°C 67.5°F19.7°C 63% 10.4 mph E16.7 kmh E 16.1 mph25.9 kmh 30.13 in1020.3 mb - 0.00 in0.0 mm 0.00 in0.0 mm
01:30 PM 81.8°F27.7°C 67.0°F19.4°C 61% 5.8 mph E9.3 kmh E 16.1 mph25.9 kmh 30.13 in1020.3 mb - 0.00 in0.0 mm 0.00 in0.0 mm
01:20 PM 81.5°F27.5°C 67.2°F19.6°C 62% 9.2 mph E14.8 kmh E 17.3 mph27.8 kmh 30.14 in1020.7 mb - 0.00 in0.0 mm 0.00 in0.0 mm
01:10 PM 81.4°F27.4°C 68.5°F20.3°C 65% 9.2 mph SE14.8 kmh SE 20.7 mph33.3 kmh 30.14 in1020.7 mb - 0.00 in0.0 mm 0.00 in0.0 mm
01:00 PM 81.5°F27.5°C 68.1°F20.1°C 64% 12.7 mph SE20.4 kmh SE 20.7 mph33.3 kmh 30.15 in1021.0 mb - 0.00 in0.0 mm 0.00 in0.0 mm
12:50 PM 81.4°F27.4°C 68.5°F20.3°C 65% 5.8 mph ENE9.3 kmh ENE 13.8 mph22.2 kmh 30.14 in1020.7 mb - 0.00 in0.0 mm 0.00 in0.0 mm
12:40 PM 81.4°F27.4°C 67.1°F19.5°C 62% 10.4 mph ESE16.7 kmh ESE 13.8 mph22.2 kmh 30.14 in1020.7 mb - 0.00 in0.0 mm 0.00 in0.0 mm
12:30 PM 81.9°F27.7°C 68.1°F20.1°C 63% 6.9 mph E11.1 kmh E 20.7 mph33.3 kmh 30.15 in1021.0 mb - 0.00 in0.0 mm 0.00 in0.0 mm
12:20 PM 81.7°F27.6°C 68.3°F20.2°C 64% 10.4 mph ENE16.7 kmh ENE 18.4 mph29.6 kmh 30.15 in1021.0 mb - 0.00 in0.0 mm 0.00 in0.0 mm
12:10 PM 81.4°F27.4°C 67.6°F19.8°C 63% 10.4 mph E16.7 kmh E 19.6 mph31.5 kmh 30.16 in1021.3 mb - 0.00 in0.0 mm 0.00 in0.0 mm
12:00 PM 81.5°F27.5°C 68.1°F20.1°C 64% 9.2 mph ESE14.8 kmh ESE 17.3 mph27.8 kmh 30.16 in1021.3 mb - 0.00 in0.0 mm 0.00 in0.0 mm
11:50 AM 81.8°F27.7°C 67.5°F19.7°C 62% 9.2 mph ESE14.8 kmh ESE 10.4 mph16.7 kmh 30.16 in1021.3 mb - 0.00 in0.0 mm 0.00 in0.0 mm
11:40 AM 81.3°F27.4°C 67.9°F19.9°C 64% 5.8 mph E9.3 kmh E 16.1 mph25.9 kmh 30.16 in1021.3 mb - 0.00 in0.0 mm 0.00 in0.0 mm
11:30 AM 81.2°F27.3°C 68.3°F20.2°C 65% 6.9 mph E11.1 kmh E 21.9 mph35.2 kmh 30.17 in1021.7 mb - 0.00 in0.0 mm 0.00 in0.0 mm
11:20 AM 81.3°F27.4°C 68.0°F20.0°C 64% 8.1 mph ESE13.0 kmh ESE 11.5 mph18.5 kmh 30.17 in1021.7 mb - 0.00 in0.0 mm 0.00 in0.0 mm
11:10 AM 81.0°F27.2°C 68.1°F20.1°C 65% 5.8 mph E9.3 kmh E 16.1 mph25.9 kmh 30.17 in1021.7 mb - 0.00 in0.0 mm 0.00 in0.0 mm
11:00 AM 80.9°F27.2°C 67.1°F19.5°C 63% 11.5 mph E18.5 kmh E 18.4 mph29.6 kmh 30.18 in1022.0 mb - 0.00 in0.0 mm 0.00 in0.0 mm
10:50 AM 81.0°F27.2°C 66.8°F19.3°C 62% 12.7 mph E20.4 kmh E 18.4 mph29.6 kmh 30.18 in1022.0 mb - 0.00 in0.0 mm 0.00 in0.0 mm
10:40 AM 81.1°F27.3°C 68.7°F20.4°C 66% 9.2 mph E14.8 kmh E 17.3 mph27.8 kmh 30.18 in1022.0 mb - 0.00 in0.0 mm 0.00 in0.0 mm
10:30 AM 80.9°F27.2°C 69.8°F21.0°C 69% 4.6 mph E7.4 kmh E 9.2 mph14.8 kmh 30.18 in1022.0 mb - 0.00 in0.0 mm 0.00 in0.0 mm
10:20 AM 80.4°F26.9°C 68.0°F20.0°C 66% 11.5 mph E18.5 kmh E 21.9 mph35.2 kmh 30.19 in1022.4 mb - 0.00 in0.0 mm 0.00 in0.0 mm
10:10 AM 80.1°F26.7°C 69.4°F20.8°C 70% 6.9 mph ESE11.1 kmh ESE 9.2 mph14.8 kmh 30.19 in1022.4 mb - 0.00 in0.0 mm 0.00 in0.0 mm
10:00 AM 80.3°F26.8°C 68.8°F20.4°C 68% 6.9 mph E11.1 kmh E 17.3 mph27.8 kmh 30.19 in1022.4 mb - 0.00 in0.0 mm 0.00 in0.0 mm
09:50 AM 80.2°F26.8°C 69.1°F20.6°C 69% 8.1 mph E13.0 kmh E 9.2 mph14.8 kmh 30.19 in1022.4 mb - 0.00 in0.0 mm 0.00 in0.0 mm
09:40 AM 79.8°F26.6°C 68.8°F20.4°C 69% 11.5 mph E18.5 kmh E 23.0 mph37.0 kmh 30.20 in1022.7 mb - 0.00 in0.0 mm 0.00 in0.0 mm
09:30 AM 79.6°F26.4°C 68.6°F20.3°C 69% 10.4 mph ESE16.7 kmh ESE 21.9 mph35.2 kmh 30.20 in1022.7 mb - 0.00 in0.0 mm 0.00 in0.0 mm
09:20 AM 80.5°F26.9°C 68.9°F20.5°C 68% 9.2 mph E14.8 kmh E 13.8 mph22.2 kmh 30.19 in1022.4 mb - 0.00 in0.0 mm 0.00 in0.0 mm
09:10 AM 80.0°F26.7°C 68.9°F20.5°C 69% 10.4 mph E16.7 kmh E 16.1 mph25.9 kmh 30.19 in1022.4 mb - 0.00 in0.0 mm 0.00 in0.0 mm
09:00 AM 79.7°F26.5°C 68.6°F20.3°C 69% 11.5 mph E18.5 kmh E 19.6 mph31.5 kmh 30.19 in1022.4 mb - 0.00 in0.0 mm 0.00 in0.0 mm
08:50 AM 79.7°F26.5°C 69.0°F20.6°C 70% 10.4 mph E16.7 kmh E 13.8 mph22.2 kmh 30.19 in1022.4 mb - 0.00 in0.0 mm 0.00 in0.0 mm
08:40 AM 79.7°F26.5°C 68.2°F20.1°C 68% 12.7 mph ESE20.4 kmh ESE 20.7 mph33.3 kmh 30.19 in1022.4 mb - 0.00 in0.0 mm 0.00 in0.0 mm
08:30 AM 79.7°F26.5°C 68.2°F20.1°C 68% 9.2 mph E14.8 kmh E 17.3 mph27.8 kmh 30.19 in1022.4 mb - 0.00 in0.0 mm 0.00 in0.0 mm
08:20 AM 79.6°F26.4°C 69.3°F20.7°C 71% 6.9 mph E11.1 kmh E 19.6 mph31.5 kmh 30.19 in1022.4 mb - 0.00 in0.0 mm 0.00 in0.0 mm
08:10 AM 79.0°F26.1°C 68.8°F20.4°C 71% 8.1 mph E13.0 kmh E 11.5 mph18.5 kmh 30.18 in1022.0 mb - 0.00 in0.0 mm 0.00 in0.0 mm
08:00 AM 79.1°F26.2°C 68.5°F20.3°C 70% 3.5 mph E5.6 kmh E 12.7 mph20.4 kmh 30.18 in1022.0 mb - 0.00 in0.0 mm 0.00 in0.0 mm
07:50 AM 78.6°F25.9°C 68.0°F20.0°C 70% 4.6 mph E7.4 kmh E 11.5 mph18.5 kmh 30.19 in1022.4 mb - 0.00 in0.0 mm 0.00 in0.0 mm
07:40 AM 78.4°F25.8°C 67.8°F19.9°C 70% 9.2 mph ESE14.8 kmh ESE 10.4 mph16.7 kmh 30.18 in1022.0 mb - 0.00 in0.0 mm 0.00 in0.0 mm
07:30 AM 78.1°F25.6°C 67.9°F19.9°C 71% 8.1 mph ESE13.0 kmh ESE 9.2 mph14.8 kmh 30.18 in1022.0 mb - 0.00 in0.0 mm 0.00 in0.0 mm
07:20 AM 77.6°F25.3°C 67.9°F19.9°C 72% 11.5 mph ESE18.5 kmh ESE 19.6 mph31.5 kmh 30.18 in1022.0 mb - 0.00 in0.0 mm 0.00 in0.0 mm
07:10 AM 77.7°F25.4°C 68.4°F20.2°C 73% 12.7 mph E20.4 kmh E 17.3 mph27.8 kmh 30.18 in1022.0 mb - 0.00 in0.0 mm 0.00 in0.0 mm
07:00 AM 77.5°F25.3°C 68.6°F20.3°C 74% 9.2 mph E14.8 kmh E 16.1 mph25.9 kmh 30.18 in1022.0 mb - 0.00 in0.0 mm 0.00 in0.0 mm
06:50 AM 77.0°F25.0°C 68.5°F20.3°C 75% 5.8 mph ESE9.3 kmh ESE 10.4 mph16.7 kmh 30.18 in1022.0 mb - 0.00 in0.0 mm 0.00 in0.0 mm
06:40 AM 76.7°F24.8°C 68.5°F20.3°C 76% 8.1 mph E13.0 kmh E 13.8 mph22.2 kmh 30.18 in1022.0 mb - 0.00 in0.0 mm 0.00 in0.0 mm
06:30 AM 76.3°F24.6°C 68.2°F20.1°C 76% 3.5 mph ESE5.6 kmh ESE 5.8 mph9.3 kmh 30.17 in1021.7 mb - 0.00 in0.0 mm 0.00 in0.0 mm
06:20 AM 76.0°F24.4°C 67.9°F19.9°C 76% 4.6 mph E7.4 kmh E 13.8 mph22.2 kmh 30.17 in1021.7 mb - 0.00 in0.0 mm 0.00 in0.0 mm
06:10 AM 75.7°F24.3°C 67.6°F19.8°C 76% 6.9 mph ESE11.1 kmh ESE 9.2 mph14.8 kmh 30.17 in1021.7 mb - 0.00 in0.0 mm 0.00 in0.0 mm
06:00 AM 75.3°F24.1°C 66.8°F19.3°C 75% 5.8 mph E9.3 kmh E 11.5 mph18.5 kmh 30.17 in1021.7 mb - 0.00 in0.0 mm 0.00 in0.0 mm
05:50 AM 75.1°F23.9°C 67.0°F19.4°C 76% 4.6 mph E7.4 kmh E 10.4 mph16.7 kmh 30.16 in1021.3 mb - 0.00 in0.0 mm 0.00 in0.0 mm
05:40 AM 74.9°F23.8°C 66.9°F19.4°C 76% 3.5 mph E5.6 kmh E 8.1 mph13.0 kmh 30.16 in1021.3 mb - 0.00 in0.0 mm 0.00 in0.0 mm
05:30 AM 74.8°F23.8°C 67.1°F19.5°C 77% 5.8 mph E9.3 kmh E 8.1 mph13.0 kmh 30.16 in1021.3 mb - 0.00 in0.0 mm 0.00 in0.0 mm
05:20 AM 74.9°F23.8°C 67.6°F19.8°C 78% 4.6 mph E7.4 kmh E 9.2 mph14.8 kmh 30.16 in1021.3 mb - 0.00 in0.0 mm 0.00 in0.0 mm
05:10 AM 74.9°F23.8°C 67.6°F19.8°C 78% 4.6 mph ESE7.4 kmh ESE 9.2 mph14.8 kmh 30.15 in1021.0 mb - 0.00 in0.0 mm 0.00 in0.0 mm
05:00 AM 74.9°F23.8°C 67.9°F19.9°C 79% 4.6 mph ESE7.4 kmh ESE 8.1 mph13.0 kmh 30.15 in1021.0 mb - 0.00 in0.0 mm 0.00 in0.0 mm
04:50 AM 75.0°F23.9°C 68.0°F20.0°C 79% Calm Calm 5.8 mph9.3 kmh 30.15 in1021.0 mb - 0.00 in0.0 mm 0.00 in0.0 mm
04:40 AM 75.0°F23.9°C 67.7°F19.8°C 78% 4.6 mph E7.4 kmh E 9.2 mph14.8 kmh 30.15 in1021.0 mb - 0.00 in0.0 mm 0.00 in0.0 mm
04:30 AM 74.8°F23.8°C 67.8°F19.9°C 79% 4.6 mph ESE7.4 kmh ESE 6.9 mph11.1 kmh 30.15 in1021.0 mb - 0.00 in0.0 mm 0.00 in0.0 mm
04:20 AM 74.8°F23.8°C 67.8°F19.9°C 79% 6.9 mph E11.1 kmh E 9.2 mph14.8 kmh 30.15 in1021.0 mb - 0.00 in0.0 mm 0.00 in0.0 mm
04:10 AM 74.8°F23.8°C 68.2°F20.1°C 80% 3.5 mph E5.6 kmh E 9.2 mph14.8 kmh 30.14 in1020.7 mb - 0.00 in0.0 mm 0.00 in0.0 mm
04:00 AM 74.8°F23.8°C 67.8°F19.9°C 79% 8.1 mph E13.0 kmh E 12.7 mph20.4 kmh 30.15 in1021.0 mb - 0.00 in0.0 mm 0.00 in0.0 mm
03:50 AM 74.9°F23.8°C 67.9°F19.9°C 79% 5.8 mph ESE9.3 kmh ESE 5.8 mph9.3 kmh 30.14 in1020.7 mb - 0.00 in0.0 mm 0.00 in0.0 mm
03:40 AM 75.0°F23.9°C 68.0°F20.0°C 79% 4.6 mph E7.4 kmh E 6.9 mph11.1 kmh 30.15 in1021.0 mb - 0.00 in0.0 mm 0.00 in0.0 mm
03:30 AM 74.9°F23.8°C 67.9°F19.9°C 79% 5.8 mph E9.3 kmh E 9.2 mph14.8 kmh 30.15 in1021.0 mb - 0.00 in0.0 mm 0.00 in0.0 mm
03:20 AM 74.9°F23.8°C 67.6°F19.8°C 78% 5.8 mph ESE9.3 kmh ESE 9.2 mph14.8 kmh 30.15 in1021.0 mb - 0.00 in0.0 mm 0.00 in0.0 mm
03:10 AM 74.9°F23.8°C 67.6°F19.8°C 78% 2.3 mph E3.7 kmh E 11.5 mph18.5 kmh 30.15 in1021.0 mb - 0.00 in0.0 mm 0.00 in0.0 mm
03:00 AM 74.9°F23.8°C 67.9°F19.9°C 79% 3.5 mph ESE5.6 kmh ESE 5.8 mph9.3 kmh 30.15 in1021.0 mb - 0.00 in0.0 mm 0.00 in0.0 mm
02:50 AM 74.8°F23.8°C 67.5°F19.7°C 78% 3.5 mph E5.6 kmh E 8.1 mph13.0 kmh 30.15 in1021.0 mb - 0.00 in0.0 mm 0.00 in0.0 mm
02:40 AM 74.9°F23.8°C 67.6°F19.8°C 78% 3.5 mph E5.6 kmh E 10.4 mph16.7 kmh 30.15 in1021.0 mb - 0.00 in0.0 mm 0.00 in0.0 mm
02:30 AM 75.0°F23.9°C 67.3°F19.6°C 77% 5.8 mph ESE9.3 kmh ESE 10.4 mph16.7 kmh 30.15 in1021.0 mb - 0.00 in0.0 mm 0.00 in0.0 mm
02:20 AM 75.0°F23.9°C 67.7°F19.8°C 78% 5.8 mph ESE9.3 kmh ESE 12.7 mph20.4 kmh 30.15 in1021.0 mb - 0.00 in0.0 mm 0.00 in0.0 mm
02:10 AM 74.7°F23.7°C 67.8°F19.9°C 79% 5.8 mph ESE9.3 kmh ESE 11.5 mph18.5 kmh 30.15 in1021.0 mb - 0.00 in0.0 mm 0.00 in0.0 mm
02:00 AM 74.7°F23.7°C 68.1°F20.1°C 80% 2.3 mph ESE3.7 kmh ESE 4.6 mph7.4 kmh 30.16 in1021.3 mb - 0.00 in0.0 mm 0.00 in0.0 mm
01:50 AM 74.7°F23.7°C 68.1°F20.1°C 80% 3.5 mph ESE5.6 kmh ESE 9.2 mph14.8 kmh 30.16 in1021.3 mb - 0.00 in0.0 mm 0.00 in0.0 mm
01:40 AM 74.8°F23.8°C 67.8°F19.9°C 79% 2.3 mph SE3.7 kmh SE 9.2 mph14.8 kmh 30.16 in1021.3 mb - 0.00 in0.0 mm 0.00 in0.0 mm
01:30 AM 74.8°F23.8°C 67.8°F19.9°C 79% 4.6 mph ESE7.4 kmh ESE 9.2 mph14.8 kmh 30.16 in1021.3 mb - 0.00 in0.0 mm 0.00 in0.0 mm
01:20 AM 74.8°F23.8°C 67.5°F19.7°C 78% 4.6 mph ESE7.4 kmh ESE 9.2 mph14.8 kmh 30.16 in1021.3 mb - 0.00 in0.0 mm 0.00 in0.0 mm
01:10 AM 74.9°F23.8°C 67.9°F19.9°C 79% 2.3 mph ESE3.7 kmh ESE 9.2 mph14.8 kmh 30.16 in1021.3 mb - 0.00 in0.0 mm 0.00 in0.0 mm
01:00 AM 75.0°F23.9°C 68.0°F20.0°C 79% 4.6 mph ESE7.4 kmh ESE 10.4 mph16.7 kmh 30.17 in1021.7 mb - 0.00 in0.0 mm 0.00 in0.0 mm
12:50 AM 75.0°F23.9°C 67.7°F19.8°C 78% 3.5 mph E5.6 kmh E 9.2 mph14.8 kmh 30.17 in1021.7 mb - 0.00 in0.0 mm 0.00 in0.0 mm
12:40 AM 75.1°F23.9°C 68.1°F20.1°C 79% 8.1 mph E13.0 kmh E 11.5 mph18.5 kmh 30.17 in1021.7 mb - 0.00 in0.0 mm 0.00 in0.0 mm
12:30 AM 75.3°F24.1°C 67.6°F19.8°C 77% 4.6 mph E7.4 kmh E 9.2 mph14.8 kmh 30.17 in1021.7 mb - 0.00 in0.0 mm 0.00 in0.0 mm
12:20 AM 75.4°F24.1°C 67.3°F19.6°C 76% 3.5 mph E5.6 kmh E 8.1 mph13.0 kmh 30.18 in1022.0 mb - 0.00 in0.0 mm 0.00 in0.0 mm
12:10 AM 75.5°F24.2°C 67.4°F19.7°C 76% 5.8 mph ESE9.3 kmh ESE 8.1 mph13.0 kmh 30.18 in1022.0 mb - 0.00 in0.0 mm 0.00 in0.0 mm
12:00 AM 75.5°F24.2°C 68.1°F20.1°C 78% 2.3 mph E3.7 kmh E 10.4 mph16.7 kmh 30.18 in1022.0 mb - 0.00 in0.0 mm 0.00 in0.0 mm